Time;durP1;ratioP1;P1;durP2;ratioP2;P2;SDS_P1;SDS_P2;PMS_P1;PMS_P2;Temp;Humidity;BMP_temperature;BMP_pressure;BME280_temperature;BME280_humidity;BME280_pressure;Samples;Min_cycle;Max_cycle;Signal;HPM_P1;HPM_P2
2024/01/18 00:01:52;;;;;;;;;;;;;;;1.97;100.00;98433.03;5090571;28;19961;-79
2024/01/18 00:04:17;;;;;;;;;;;;;;;1.99;100.00;98423.31;5091879;28;19908;-78
2024/01/18 00:06:42;;;;;;;;;;;;;;;2.03;100.00;98426.06;5091847;28;19908;-79
2024/01/18 00:09:07;;;;;;;;;;;;;;;2.05;100.00;98418.25;5090353;28;19908;-80
2024/01/18 00:11:33;;;;;;;;;;;;;;;2.00;100.00;98415.91;5090207;28;19965;-79
2024/01/18 00:13:58;;;;;;;;;;;;;;;2.08;100.00;98412.03;5090542;28;20406;-79
2024/01/18 00:16:23;;;;;;;;;;;;;;;2.10;100.00;98417.13;5090475;28;20014;-79
2024/01/18 00:18:49;;;;;;;;;;;;;;;2.12;100.00;98422.94;5091053;28;19912;-79
2024/01/18 00:21:14;;;;;;;;;;;;;;;2.09;100.00;98416.34;5090518;28;19912;-80
2024/01/18 00:23:39;;;;;;;;;;;;;;;2.10;100.00;98398.81;5091690;28;19916;-80
2024/01/18 00:26:05;;;;;;;;;;;;;;;2.19;100.00;98401.94;5090671;28;19923;-79
2024/01/18 00:28:30;;;;;;;;;;;;;;;2.17;100.00;98408.94;5090588;28;19912;-79
2024/01/18 00:30:55;;;;;;;;;;;;;;;2.21;100.00;98405.06;5092019;28;19927;-79
2024/01/18 00:33:21;;;;;;;;;;;;;;;2.27;100.00;98414.41;5091728;28;19916;-78
2024/01/18 00:35:48;;;;;;;;;;;;;;;2.30;100.00;98419.06;5090468;28;20346;-79
2024/01/18 00:38:13;;;;;;;;;;;;;;;2.34;100.00;98414.41;5090252;28;20064;-79
2024/01/18 00:40:38;;;;;;;;;;;;;;;2.42;100.00;98409.72;5091539;28;19926;-79
2024/01/18 00:43:05;;;;;;;;;;;;;;;2.42;100.00;98412.44;5081308;28;19974;-79
2024/01/18 00:45:30;;;;;;;;;;;;;;;2.54;100.00;98420.25;5085945;28;19916;-79
2024/01/18 00:47:55;;;;;;;;;;;;;;;2.62;100.00;98418.31;5090230;28;20433;-79
2024/01/18 00:50:21;;;;;;;;;;;;;;;2.64;100.00;98414.03;5094187;28;19939;-79
2024/01/18 00:52:46;;;;;;;;;;;;;;;2.68;100.00;98414.81;5094160;28;20272;-79
2024/01/18 00:55:11;;;;;;;;;;;;;;;2.62;100.00;98419.09;5094028;28;20384;-79
2024/01/18 00:57:37;;;;;;;;;;;;;;;2.56;100.00;98415.19;5095613;28;19927;-78
2024/01/18 01:00:03;;;;;;;;;;;;;;;2.52;100.00;98405.47;5093892;28;20003;-79
2024/01/18 01:02:29;;;;;;;;;;;;;;;2.52;100.00;98400.00;5083626;28;19915;-79
2024/01/18 01:04:54;;;;;;;;;;;;;;;2.49;100.00;98400.78;5094046;28;19912;-79
2024/01/18 01:07:19;;;;;;;;;;;;;;;2.54;100.00;98400.38;5093911;28;20372;-79
2024/01/18 01:09:44;;;;;;;;;;;;;;;2.47;100.00;98384.81;5095253;28;19912;-79
2024/01/18 01:12:10;;;;;;;;;;;;;;;2.45;100.00;98385.22;5094202;28;19911;-79
2024/01/18 01:14:35;;;;;;;;;;;;;;;2.41;100.00;98381.69;5094061;28;19912;-79
2024/01/18 01:17:00;;;;;;;;;;;;;;;2.51;100.00;98387.53;5093743;28;19912;-79
2024/01/18 01:19:26;;;;;;;;;;;;;;;2.60;100.00;98385.19;5094816;28;19912;-79
2024/01/18 01:21:51;;;;;;;;;;;;;;;2.57;100.00;98375.06;5093503;28;19912;-79
2024/01/18 01:24:16;;;;;;;;;;;;;;;2.62;100.00;98380.13;5093365;28;19966;-79
2024/01/18 01:26:42;;;;;;;;;;;;;;;2.62;100.00;98378.19;5093851;28;19912;-79
2024/01/18 01:29:08;;;;;;;;;;;;;;;2.62;100.00;98378.19;5094617;28;20371;-79
2024/01/18 01:31:33;;;;;;;;;;;;;;;2.62;100.00;98375.44;5093657;28;20292;-80
2024/01/18 01:33:58;;;;;;;;;;;;;;;2.59;100.00;98364.56;5079781;28;19912;-79
2024/01/18 01:36:24;;;;;;;;;;;;;;;2.66;100.00;98370.75;5093289;28;19919;-79
2024/01/18 01:38:49;;;;;;;;;;;;;;;2.62;100.00;98363.75;5092906;28;19916;-79
2024/01/18 01:41:14;;;;;;;;;;;;;;;2.69;100.00;98359.09;5093671;28;19959;-79
2024/01/18 01:43:59;;;;;;;;;;;;;;;2.70;100.00;98352.47;5092819;28;19920;-79
2024/01/18 01:46:24;;;;;;;;;;;;;;;2.70;100.00;98357.13;5093239;28;19912;-79
2024/01/18 01:48:50;;;;;;;;;;;;;;;2.67;100.00;98355.19;5092740;28;19922;-79
2024/01/18 01:51:15;;;;;;;;;;;;;;;2.59;100.00;98353.66;5092988;28;20390;-79
2024/01/18 01:53:41;;;;;;;;;;;;;;;2.54;100.00;98351.28;5092960;28;19919;-79
2024/01/18 01:56:06;;;;;;;;;;;;;;;2.43;100.00;98349.38;5093207;28;19920;-79
2024/01/18 01:58:32;;;;;;;;;;;;;;;2.50;100.00;98345.06;5092857;28;20010;-79
2024/01/18 02:00:57;;;;;;;;;;;;;;;2.54;100.00;98340.38;5092334;28;19912;-79
2024/01/18 02:03:23;;;;;;;;;;;;;;;2.49;100.00;98338.06;5092620;28;20318;-79
2024/01/18 02:05:48;;;;;;;;;;;;;;;2.54;100.00;98335.72;5092965;28;19945;-79
2024/01/18 02:08:14;;;;;;;;;;;;;;;2.59;100.00;98329.09;5094288;28;19922;-79
2024/01/18 02:10:39;;;;;;;;;;;;;;;2.66;100.00;98326.34;5083478;28;19920;-79
2024/01/18 02:13:06;;;;;;;;;;;;;;;2.66;100.00;98315.44;5088790;28;19951;-79
2024/01/18 02:15:34;;;;;;;;;;;;;;;2.76;100.00;98320.88;5092665;28;19912;-79
2024/01/18 02:18:00;;;;;;;;;;;;;;;2.76;100.00;98315.44;5093741;28;19950;-79
2024/01/18 02:20:25;;;;;;;;;;;;;;;2.81;100.00;98303.34;5093927;28;19912;-79
2024/01/18 02:22:51;;;;;;;;;;;;;;;2.91;100.00;98310.69;5093030;28;19955;-79
2024/01/18 02:25:18;;;;;;;;;;;;;;;2.92;100.00;98300.56;5092727;28;19918;-79
2024/01/18 02:27:43;;;;;;;;;;;;;;;3.02;100.00;98300.50;5092120;28;19916;-79
2024/01/18 02:30:08;;;;;;;;;;;;;;;3.06;100.00;98292.34;5093291;28;19969;-79
2024/01/18 02:32:34;;;;;;;;;;;;;;;3.08;100.00;98282.56;5091617;28;19912;-79
2024/01/18 02:34:59;;;;;;;;;;;;;;;3.19;100.00;98280.59;5092880;28;20379;-79
2024/01/18 02:37:25;;;;;;;;;;;;;;;3.22;100.00;98277.03;5079429;28;20558;-79
2024/01/18 02:39:52;;;;;;;;;;;;;;;3.18;100.00;98280.97;5092171;28;19927;-79
2024/01/18 02:42:17;;;;;;;;;;;;;;;3.21;100.00;98259.09;5092271;28;19920;-80
2024/01/18 02:44:44;;;;;;;;;;;;;;;3.33;100.00;98257.88;5092232;28;19919;-78
2024/01/18 02:47:10;;;;;;;;;;;;;;;3.34;100.00;98261.38;5093001;28;19920;-79
2024/01/18 02:49:36;;;;;;;;;;;;;;;3.47;100.00;98259.75;5091785;28;19912;-79
2024/01/18 02:52:01;;;;;;;;;;;;;;;3.47;100.00;98270.66;5091853;28;19912;-79
2024/01/18 02:54:27;;;;;;;;;;;;;;;3.37;100.00;98266.06;5091852;28;19923;-79
2024/01/18 02:56:52;;;;;;;;;;;;;;;3.38;100.00;98260.19;5091715;28;20341;-80
2024/01/18 02:59:17;;;;;;;;;;;;;;;3.36;100.00;98264.50;5093407;28;20007;-79
2024/01/18 03:01:42;;;;;;;;;;;;;;;3.28;100.00;98269.22;5075933;28;19918;-79
2024/01/18 03:04:08;;;;;;;;;;;;;;;3.21;100.00;98266.50;5081569;28;19919;-80
2024/01/18 03:06:33;;;;;;;;;;;;;;;3.13;100.00;98263.06;5093104;28;19915;-79
2024/01/18 03:08:58;;;;;;;;;;;;;;;3.12;100.00;98258.00;5091870;28;19927;-80
2024/01/18 03:11:24;;;;;;;;;;;;;;;3.02;100.00;98262.31;5090972;28;19970;-79
2024/01/18 03:13:49;;;;;;;;;;;;;;;3.05;100.00;98258.81;5091264;28;19980;-80
2024/01/18 03:16:15;;;;;;;;;;;;;;;3.02;100.00;98262.31;5091377;28;19920;-79
2024/01/18 03:18:43;;;;;;;;;;;;;;;3.00;100.00;98264.69;5091386;28;20315;-80
2024/01/18 03:21:08;;;;;;;;;;;;;;;2.98;100.00;98239.72;5091750;28;19945;-79
2024/01/18 03:23:34;;;;;;;;;;;;;;;2.94;100.00;98241.72;5091396;28;20011;-79
2024/01/18 03:25:59;;;;;;;;;;;;;;;2.96;100.00;98258.44;5091384;28;19923;-79
2024/01/18 03:28:24;;;;;;;;;;;;;;;2.94;100.00;98240.94;5092718;28;19912;-79
2024/01/18 03:30:50;;;;;;;;;;;;;;;2.94;100.00;98235.47;5091395;28;19959;-79
2024/01/18 03:33:15;;;;;;;;;;;;;;;2.93;100.00;98223.78;5091161;28;20380;-79
2024/01/18 03:35:42;;;;;;;;;;;;;;;3.00;100.00;98223.75;5091326;28;19916;-80
2024/01/18 03:38:07;;;;;;;;;;;;;;;3.03;100.00;98217.47;5091488;28;19963;-79
2024/01/18 03:40:33;;;;;;;;;;;;;;;3.08;100.00;98221.75;5092350;28;20353;-79
2024/01/18 03:42:58;;;;;;;;;;;;;;;3.07;100.00;98221.00;5091108;28;20322;-79
2024/01/18 03:45:23;;;;;;;;;;;;;;;3.03;100.00;98224.88;5091159;28;19912;-80
2024/01/18 03:47:49;;;;;;;;;;;;;;;3.09;100.00;98218.63;5090983;28;19923;-80
2024/01/18 03:50:14;;;;;;;;;;;;;;;3.14;100.00;98225.59;5091070;28;20364;-79
2024/01/18 03:52:39;;;;;;;;;;;;;;;3.16;100.00;98234.19;5091145;28;20018;-79
2024/01/18 03:55:05;;;;;;;;;;;;;;;3.18;100.00;98226.38;5090627;28;20022;-79
2024/01/18 03:57:30;;;;;;;;;;;;;;;3.07;100.00;98236.59;5091248;28;19920;-79
2024/01/18 03:59:57;;;;;;;;;;;;;;;3.03;100.00;98233.84;5090899;28;20020;-79
2024/01/18 04:02:22;;;;;;;;;;;;;;;3.08;100.00;98235.38;5090737;28;19915;-79
2024/01/18 04:04:47;;;;;;;;;;;;;;;3.02;100.00;98245.16;5091998;28;19912;-79
2024/01/18 04:07:15;;;;;;;;;;;;;;;3.09;100.00;98245.91;5090922;28;19941;-79
2024/01/18 04:09:40;;;;;;;;;;;;;;;3.10;100.00;98255.66;5090705;28;19957;-79
2024/01/18 04:12:05;;;;;;;;;;;;;;;3.17;100.00;98250.16;5090798;28;19994;-79
2024/01/18 04:14:31;;;;;;;;;;;;;;;3.17;100.00;98250.16;5090486;28;19916;-79
2024/01/18 04:16:56;;;;;;;;;;;;;;;3.11;100.00;98259.94;5091687;28;19912;-79
2024/01/18 04:19:22;;;;;;;;;;;;;;;3.01;100.00;98251.81;5092033;28;20414;-79
2024/01/18 04:21:48;;;;;;;;;;;;;;;2.97;100.00;98238.16;5092219;28;19908;-80
2024/01/18 04:24:13;;;;;;;;;;;;;;;3.00;100.00;98237.38;5094203;28;19981;-79
2024/01/18 04:26:39;;;;;;;;;;;;;;;2.96;100.00;98231.16;5094897;28;19919;-79
2024/01/18 04:29:04;;;;;;;;;;;;;;;2.96;100.00;98239.34;5094723;28;19952;-78
2024/01/18 04:31:30;;;;;;;;;;;;;;;2.92;100.00;98240.53;5094514;28;19955;-79
2024/01/18 04:33:55;;;;;;;;;;;;;;;2.92;100.00;98224.16;5094556;28;20382;-80
2024/01/18 04:36:20;;;;;;;;;;;;;;;2.91;100.00;98228.84;5094547;28;19912;-79
2024/01/18 04:38:46;;;;;;;;;;;;;;;2.86;100.00;98230.03;5095960;28;19912;-79
2024/01/18 04:41:11;;;;;;;;;;;;;;;2.85;100.00;98214.84;5094693;28;19912;-80
2024/01/18 04:43:36;;;;;;;;;;;;;;;2.85;100.00;98222.25;5094509;28;19999;-80
2024/01/18 04:46:04;;;;;;;;;;;;;;;2.84;100.00;98215.22;5086949;28;20014;-79
2024/01/18 04:48:29;;;;;;;;;;;;;;;2.92;100.00;98230.41;5088479;28;20354;-79
2024/01/18 04:50:54;;;;;;;;;;;;;;;2.88;100.00;98207.03;5095928;28;20073;-79
2024/01/18 04:53:20;;;;;;;;;;;;;;;2.97;100.00;98224.53;5094138;28;20334;-80
2024/01/18 04:55:45;;;;;;;;;;;;;;;3.11;100.00;98218.22;5094456;28;19965;-79
2024/01/18 04:58:11;;;;;;;;;;;;;;;3.21;100.00;98226.34;5094245;28;19908;-79
2024/01/18 05:00:36;;;;;;;;;;;;;;;3.22;100.00;98221.66;5095388;28;20291;-80
2024/01/18 05:03:01;;;;;;;;;;;;;;;3.21;100.00;98209.19;5094289;28;20379;-78
2024/01/18 05:05:26;;;;;;;;;;;;;;;3.10;100.00;98214.72;5094202;28;20318;-79
2024/01/18 05:07:52;;;;;;;;;;;;;;;3.11;100.00;98224.47;5094996;28;19912;-79
2024/01/18 05:10:17;;;;;;;;;;;;;;;3.00;100.00;98237.38;5094256;28;19961;-79
2024/01/18 05:12:44;;;;;;;;;;;;;;;2.98;100.00;98236.22;5080529;28;20025;-79
2024/01/18 05:15:10;;;;;;;;;;;;;;;2.94;100.00;98241.72;5093772;28;19914;-79
2024/01/18 05:17:36;;;;;;;;;;;;;;;2.86;100.00;98232.00;5093753;28;19919;-79
2024/01/18 05:20:03;;;;;;;;;;;;;;;2.80;100.00;98239.03;5088869;28;19920;-80
2024/01/18 05:22:29;;;;;;;;;;;;;;;2.80;100.00;98225.38;5086935;28;19947;-79
2024/01/18 05:24:55;;;;;;;;;;;;;;;2.82;100.00;98250.34;5095231;28;20037;-79
2024/01/18 05:27:20;;;;;;;;;;;;;;;2.79;100.00;98254.63;5095041;28;20338;-79
2024/01/18 05:29:47;;;;;;;;;;;;;;;2.74;100.00;98252.31;5094908;28;19912;-79
2024/01/18 05:32:13;;;;;;;;;;;;;;;2.70;100.00;98254.28;5093425;28;20296;-79
2024/01/18 05:34:38;;;;;;;;;;;;;;;2.70;100.00;98248.03;5092746;28;19912;-79
2024/01/18 05:37:04;;;;;;;;;;;;;;;2.74;100.00;98235.16;5093059;28;20468;-79
2024/01/18 05:39:29;;;;;;;;;;;;;;;2.78;100.00;98222.28;5093424;28;19919;-79
2024/01/18 05:41:55;;;;;;;;;;;;;;;2.83;100.00;98221.88;5093370;28;20319;-79
2024/01/18 05:44:20;;;;;;;;;;;;;;;2.83;100.00;98216.44;5093002;28;19912;-79
2024/01/18 05:46:46;;;;;;;;;;;;;;;2.88;100.00;98212.50;5094571;28;19912;-79
2024/01/18 05:49:12;;;;;;;;;;;;;;;2.95;100.00;98210.53;5094537;28;20446;-79
2024/01/18 05:51:37;;;;;;;;;;;;;;;2.98;100.00;98217.13;5093201;28;20311;-79
2024/01/18 05:54:02;;;;;;;;;;;;;;;3.00;100.00;98212.06;5092871;28;19916;-79
2024/01/18 05:56:28;;;;;;;;;;;;;;;3.02;100.00;98201.50;5094440;28;20390;-79
2024/01/18 05:58:53;;;;;;;;;;;;;;;3.06;100.00;98211.25;5094071;28;19969;-79
2024/01/18 06:01:18;;;;;;;;;;;;;;;3.07;100.00;98225.66;5092812;28;19950;-79
2024/01/18 06:03:44;;;;;;;;;;;;;;;3.04;100.00;98215.53;5087410;28;20360;-80
2024/01/18 06:06:09;;;;;;;;;;;;;;;3.10;100.00;98224.84;5086680;28;19919;-79
2024/01/18 06:08:36;;;;;;;;;;;;;;;3.08;100.00;98232.66;5092923;28;20360;-80
2024/01/18 06:11:01;;;;;;;;;;;;;;;3.08;100.00;98243.56;5093016;28;19920;-80
2024/01/18 06:13:26;;;;;;;;;;;;;;;2.93;100.00;98231.19;5093156;28;19915;-80
2024/01/18 06:15:52;;;;;;;;;;;;;;;2.80;100.00;98234.34;5093005;28;19919;-79
2024/01/18 06:18:17;;;;;;;;;;;;;;;2.68;100.00;98232.06;5094335;28;19918;-80
2024/01/18 06:20:42;;;;;;;;;;;;;;;2.52;100.00;98239.91;5081359;28;19942;-80
2024/01/18 06:23:08;;;;;;;;;;;;;;;2.49;100.00;98235.22;5091421;28;19920;-81
2024/01/18 06:25:34;;;;;;;;;;;;;;;2.50;100.00;98230.56;5093089;28;20374;-80
2024/01/18 06:28:00;;;;;;;;;;;;;;;2.47;100.00;98222.00;5092909;28;20380;-81
2024/01/18 06:30:26;;;;;;;;;;;;;;;2.51;100.00;98245.75;5092799;28;20002;-81
2024/01/18 06:32:51;;;;;;;;;;;;;;;2.57;100.00;98239.50;5093661;28;19999;-81
2024/01/18 06:35:16;;;;;;;;;;;;;;;2.66;100.00;98250.75;5092743;28;20425;-81
2024/01/18 06:37:42;;;;;;;;;;;;;;;2.68;100.00;98253.09;5091768;28;19912;-80
2024/01/18 06:40:09;;;;;;;;;;;;;;;2.70;100.00;98258.94;5084933;28;19916;-81
2024/01/18 06:42:34;;;;;;;;;;;;;;;2.75;100.00;98253.88;5076812;28;19916;-80
2024/01/18 06:45:00;;;;;;;;;;;;;;;2.94;100.00;98251.84;5084051;28;19912;-80
2024/01/18 06:47:26;;;;;;;;;;;;;;;2.96;100.00;98261.16;5079493;28;20380;-80
2024/01/18 06:49:52;;;;;;;;;;;;;;;2.90;100.00;98264.69;5077870;28;19908;-80
2024/01/18 06:52:17;;;;;;;;;;;;;;;2.72;100.00;98271.00;5064068;28;19923;-79
2024/01/18 06:54:43;;;;;;;;;;;;;;;2.76;100.00;98268.28;5091939;28;20401;-80
2024/01/18 06:57:09;;;;;;;;;;;;;;;2.84;100.00;98261.59;5092353;28;19919;-79
2024/01/18 06:59:35;;;;;;;;;;;;;;;2.87;100.00;98258.09;5092079;28;20285;-81
2024/01/18 07:02:01;;;;;;;;;;;;;;;2.95;100.00;98264.31;5093167;28;20311;-79
2024/01/18 07:04:26;;;;;;;;;;;;;;;3.16;100.00;98256.78;5092134;28;19908;-80
2024/01/18 07:06:51;;;;;;;;;;;;;;;3.26;100.00;98249.72;5091768;28;20349;-81
2024/01/18 07:09:17;;;;;;;;;;;;;;;3.38;100.00;98243.00;5093120;28;19951;-81
2024/01/18 07:11:42;;;;;;;;;;;;;;;3.58;100.00;98250.31;5091762;28;19908;-80
2024/01/18 07:14:07;;;;;;;;;;;;;;;3.65;100.00;98244.78;5091171;28;19919;-81
2024/01/18 07:16:33;;;;;;;;;;;;;;;3.65;100.00;98255.72;5091196;28;20341;-80
2024/01/18 07:18:58;;;;;;;;;;;;;;;3.86;100.00;98252.03;5090511;28;19912;-79
2024/01/18 07:21:23;;;;;;;;;;;;;;;3.89;100.00;98253.97;5091335;28;20375;-79
2024/01/18 07:23:48;;;;;;;;;;;;;;;4.02;100.00;98257.78;5091755;28;19912;-82
2024/01/18 07:26:14;;;;;;;;;;;;;;;4.04;100.00;98252.66;5090526;28;19923;-80
2024/01/18 07:28:39;;;;;;;;;;;;;;;4.00;100.00;98245.69;5089749;28;19912;-80
2024/01/18 07:31:05;;;;;;;;;;;;;;;4.06;100.00;98247.59;5088662;28;19966;-79
2024/01/18 07:33:30;;;;;;;;;;;;;;;4.25;100.00;98237.25;5090281;28;19949;-80
2024/01/18 07:35:55;;;;;;;;;;;;;;;4.38;100.00;98233.63;5090914;28;19912;-80
2024/01/18 07:38:21;;;;;;;;;;;;;;;4.54;100.00;98222.09;5089220;28;20411;-80
2024/01/18 07:40:46;;;;;;;;;;;;;;;4.72;100.00;98222.69;5090900;28;20297;-80
2024/01/18 07:43:11;;;;;;;;;;;;;;;4.85;100.00;98226.44;5090905;28;19911;-80
2024/01/18 07:45:36;;;;;;;;;;;;;;;4.98;98.79;98212.22;5090940;28;20306;-80
2024/01/18 07:48:02;;;;;;;;;;;;;;;5.15;98.03;98214.72;5089553;28;19916;-80
2024/01/18 07:50:27;;;;;;;;;;;;;;;5.24;95.83;98200.53;5090825;28;19949;-81
2024/01/18 07:52:53;;;;;;;;;;;;;;;5.35;96.75;98198.41;5091096;28;20025;-82
2024/01/18 07:55:18;;;;;;;;;;;;;;;5.48;95.61;98191.16;5091259;28;19916;-79
2024/01/18 07:57:44;;;;;;;;;;;;;;;5.52;94.65;98182.88;5090222;28;19923;-81
2024/01/18 08:00:09;;;;;;;;;;;;;;;5.61;95.16;98169.41;5078629;28;19909;-80
2024/01/18 08:02:34;;;;;;;;;;;;;;;5.72;94.90;98168.06;5091297;28;19915;-81
2024/01/18 08:05:00;;;;;;;;;;;;;;;5.63;93.48;98167.03;5090206;28;20340;-80
2024/01/18 08:07:25;;;;;;;;;;;;;;;5.55;95.97;98166.38;5091426;28;20363;-80
2024/01/18 08:09:50;;;;;;;;;;;;;;;5.68;97.12;98167.34;5091853;28;19908;-82
2024/01/18 08:12:16;;;;;;;;;;;;;;;5.79;97.23;98156.19;5091437;28;19915;-80
2024/01/18 08:14:41;;;;;;;;;;;;;;;5.97;95.73;98151.19;5091428;28;19915;-82
2024/01/18 08:17:07;;;;;;;;;;;;;;;5.98;95.76;98141.00;5091679;28;19908;-79
2024/01/18 08:19:33;;;;;;;;;;;;;;;6.06;94.20;98142.44;5091750;28;20014;-79
2024/01/18 08:21:58;;;;;;;;;;;;;;;5.66;93.70;98065.59;5090512;28;20013;-80
2024/01/18 08:24:24;;;;;;;;;;;;;;;5.97;94.16;98103.81;5090081;28;20382;-80
2024/01/18 08:26:49;;;;;;;;;;;;;;;5.37;95.85;98097.38;5090118;28;20329;-80
2024/01/18 08:29:14;;;;;;;;;;;;;;;5.30;98.89;98081.09;5091564;28;19908;-80
2024/01/18 08:31:40;;;;;;;;;;;;;;;5.49;97.86;98072.13;5090271;28;20391;-81
2024/01/18 08:34:07;;;;;;;;;;;;;;;5.54;97.21;98063.47;5089876;28;20337;-81
2024/01/18 08:36:32;;;;;;;;;;;;;;;5.24;97.81;98038.94;5090263;28;19908;-80
2024/01/18 08:38:58;;;;;;;;;;;;;;;4.97;100.00;98040.94;5076574;28;19998;-80
2024/01/18 08:41:23;;;;;;;;;;;;;;;5.16;100.00;98038.28;5090391;28;20364;-81
2024/01/18 08:43:48;;;;;;;;;;;;;;;5.36;100.00;98040.31;5090050;28;19915;-79
2024/01/18 08:46:14;;;;;;;;;;;;;;;5.77;98.69;98048.94;5091353;28;19959;-79
2024/01/18 08:48:40;;;;;;;;;;;;;;;5.94;96.81;98052.56;5090083;28;19908;-80
2024/01/18 08:51:12;;;;;;;;;;;;;;;6.21;95.16;98064.16;5091522;28;19912;-81
2024/01/18 08:53:38;;;;;;;;;;;;;;;6.46;92.82;98061.69;5091022;28;19959;-80
2024/01/18 08:56:03;;;;;;;;;;;;;;;6.63;90.50;98064.50;5089872;28;19947;-79
2024/01/18 08:58:29;;;;;;;;;;;;;;;6.62;89.06;98060.97;5091097;28;19973;-79
2024/01/18 09:00:54;;;;;;;;;;;;;;;6.65;89.93;98070.31;5090035;28;19999;-80
2024/01/18 09:03:19;;;;;;;;;;;;;;;6.57;89.54;98074.44;5091159;28;20524;-80
2024/01/18 09:05:45;;;;;;;;;;;;;;;6.36;92.00;98084.63;5090016;28;19919;-80
2024/01/18 09:08:10;;;;;;;;;;;;;;;6.16;94.24;98072.88;5091044;28;19916;-80
2024/01/18 09:10:35;;;;;;;;;;;;;;;5.89;95.07;98064.03;5093865;28;20410;-79
2024/01/18 09:13:01;;;;;;;;;;;;;;;5.99;95.63;98060.31;5094834;28;19984;-80
2024/01/18 09:15:26;;;;;;;;;;;;;;;6.09;94.77;98065.56;5095144;28;19908;-80
2024/01/18 09:17:52;;;;;;;;;;;;;;;6.14;93.43;98072.56;5094890;28;19919;-79
2024/01/18 09:20:17;;;;;;;;;;;;;;;6.26;92.81;98066.44;5093761;28;19918;-79
2024/01/18 09:22:43;;;;;;;;;;;;;;;6.43;92.74;98046.09;5093315;28;19947;-81
2024/01/18 09:25:08;;;;;;;;;;;;;;;6.50;91.20;98051.44;5093036;28;19922;-81
2024/01/18 09:27:33;;;;;;;;;;;;;;;6.59;91.13;98036.34;5081228;28;19912;-80
2024/01/18 09:29:58;;;;;;;;;;;;;;;6.78;90.37;98043.75;5093293;28;20386;-80
2024/01/18 09:32:25;;;;;;;;;;;;;;;6.83;89.43;98035.00;5094451;28;19908;-80
2024/01/18 09:34:51;;;;;;;;;;;;;;;6.82;90.00;98027.97;5094374;28;20439;-80
2024/01/18 09:37:20;;;;;;;;;;;;;;;6.88;90.25;98010.53;5092946;28;19912;-80
2024/01/18 09:39:45;;;;;;;;;;;;;;;6.78;90.65;98022.56;5094427;28;19908;-79
2024/01/18 09:42:16;;;;;;;;;;;;;;;6.70;90.80;98020.38;5094169;28;19995;-80
2024/01/18 09:44:45;;;;;;;;;;;;;;;6.54;92.08;98010.94;5094235;28;19933;-80
2024/01/18 09:47:12;;;;;;;;;;;;;;;6.40;93.15;98013.22;5094235;28;20010;-80
2024/01/18 09:49:39;;;;;;;;;;;;;;;6.47;93.28;98005.63;5092817;28;19912;-79
2024/01/18 09:52:05;;;;;;;;;;;;;;;6.54;91.69;98002.72;5092834;28;19970;-80
2024/01/18 09:54:31;;;;;;;;;;;;;;;6.82;90.85;98003.25;5092546;28;19923;-81
2024/01/18 09:57:00;;;;;;;;;;;;;;;7.05;89.24;98014.09;5079331;28;20284;-80
2024/01/18 09:59:27;;;;;;;;;;;;;;;7.24;87.78;98004.97;5092749;28;19908;-78
2024/01/18 10:01:52;;;;;;;;;;;;;;;7.43;86.12;98000.56;5093794;28;19908;-80
2024/01/18 10:04:20;;;;;;;;;;;;;;;7.68;84.58;98000.66;5092730;28;19915;-80
2024/01/18 10:06:45;;;;;;;;;;;;;;;7.81;82.99;98000.72;5093888;28;19912;-81
2024/01/18 10:09:11;;;;;;;;;;;;;;;8.17;81.06;97993.00;5092510;28;20011;-81
2024/01/18 10:11:40;;;;;;;;;;;;;;;8.58;77.60;97988.66;5080475;28;19951;-79
2024/01/18 10:14:06;;;;;;;;;;;;;;;8.98;75.26;97978.72;5093896;28;20406;-80
2024/01/18 10:16:32;;;;;;;;;;;;;;;9.32;71.34;97974.47;5092335;28;19915;-80
2024/01/18 10:19:05;;;;;;;;;;;;;;;9.61;68.70;97969.50;5092294;28;19912;-79
2024/01/18 10:21:33;;;;;;;;;;;;;;;9.36;64.93;97962.09;5091594;28;19974;-81
2024/01/18 10:23:58;;;;;;;;;;;;;;;9.05;66.80;97963.94;5092295;28;20351;-80
2024/01/18 10:26:27;;;;;;;;;;;;;;;9.60;65.27;97967.19;5093373;28;19911;-78
2024/01/18 10:28:52;;;;;;;;;;;;;;;9.84;61.92;97970.28;5093461;28;19912;-78
2024/01/18 10:31:18;;;;;;;;;;;;;;;9.84;62.51;97950.97;5093599;28;19915;-78
2024/01/18 10:33:45;;;;;;;;;;;;;;;9.46;63.90;97934.63;5093475;28;20394;-81
2024/01/18 10:36:10;;;;;;;;;;;;;;;9.60;62.12;97917.56;5093628;28;19912;-81
2024/01/18 10:38:38;;;;;;;;;;;;;;;9.64;62.18;97909.94;5091784;28;20011;-78
2024/01/18 10:41:04;;;;;;;;;;;;;;;9.78;62.35;97921.22;5093007;28;20396;-79
2024/01/18 10:43:29;;;;;;;;;;;;;;;9.15;63.23;97893.16;5091724;28;19915;-78
2024/01/18 10:45:55;;;;;;;;;;;;;;;9.24;64.66;97876.69;5091471;28;19930;-79
2024/01/18 10:48:21;;;;;;;;;;;;;;;9.40;65.29;97877.28;5091612;28;20357;-81
2024/01/18 10:50:47;;;;;;;;;;;;;;;9.48;64.52;97855.75;5091530;28;19908;-79
2024/01/18 10:53:14;;;;;;;;;;;;;;;9.20;63.51;97854.78;5091882;28;20003;-78
2024/01/18 10:55:40;;;;;;;;;;;;;;;9.07;65.22;97851.31;5092492;28;20003;-79
2024/01/18 10:58:08;;;;;;;;;;;;;;;9.36;64.52;97859.34;5091806;28;20431;-78
2024/01/18 11:00:33;;;;;;;;;;;;;;;9.59;64.52;97869.91;5091736;28;19935;-79
2024/01/18 11:02:59;;;;;;;;;;;;;;;9.74;64.10;97861.88;5093342;28;20304;-79
2024/01/18 11:05:25;;;;;;;;;;;;;;;9.84;63.72;97855.19;5092375;28;20383;-78
2024/01/18 11:07:51;;;;;;;;;;;;;;;9.64;64.49;97850.03;5091037;28;20387;-79
2024/01/18 11:10:16;;;;;;;;;;;;;;;9.65;65.47;97850.78;5092706;28;19912;-78
2024/01/18 11:12:43;;;;;;;;;;;;;;;9.66;64.71;97850.34;5091270;28;19912;-79
2024/01/18 11:15:11;;;;;;;;;;;;;;;9.36;66.28;97840.03;5091473;28;19912;-78
2024/01/18 11:17:45;;;;;;;;;;;;;;;9.21;68.19;97859.09;5091328;28;19916;-78
2024/01/18 11:20:10;;;;;;;;;;;;;;;9.12;70.07;97850.72;5078595;28;20341;-79
2024/01/18 11:22:36;;;;;;;;;;;;;;;9.06;69.60;97852.53;5092636;28;19912;-79
2024/01/18 11:25:03;;;;;;;;;;;;;;;8.99;70.30;97837.00;5092847;28;19915;-79
2024/01/18 11:27:34;;;;;;;;;;;;;;;8.99;70.49;97853.53;5091847;28;19908;-78
2024/01/18 11:29:59;;;;;;;;;;;;;;;9.13;71.35;97843.25;5091524;28;20369;-79
2024/01/18 11:32:24;;;;;;;;;;;;;;;9.09;69.92;97823.31;5090856;28;19964;-81
2024/01/18 11:34:54;;;;;;;;;;;;;;;9.24;69.82;97825.09;5091783;28;19957;-79
2024/01/18 11:37:24;;;;;;;;;;;;;;;9.38;70.03;97823.81;5092676;28;20371;-79
2024/01/18 11:39:52;;;;;;;;;;;;;;;9.46;70.62;97802.28;5092213;28;19908;-80
2024/01/18 11:42:18;;;;;;;;;;;;;;;9.37;71.14;97794.72;5087702;28;19958;-79
2024/01/18 11:44:59;;;;;;;;;;;;;;;9.58;70.89;97796.69;5082196;28;19935;-78
2024/01/18 11:47:27;;;;;;;;;;;;;;;9.82;69.88;97794.94;5090808;28;19908;-78
2024/01/18 11:49:53;;;;;;;;;;;;;;;9.84;68.50;97780.69;5090578;28;19907;-79
2024/01/18 11:52:21;;;;;;;;;;;;;;;9.84;67.70;97766.91;5090729;28;19908;-80
2024/01/18 11:54:49;;;;;;;;;;;;;;;9.77;68.62;97756.91;5091715;28;20010;-81
2024/01/18 11:57:14;;;;;;;;;;;;;;;9.75;67.69;97748.34;5090267;28;19916;-80
2024/01/18 11:59:40;;;;;;;;;;;;;;;9.73;68.00;97731.47;5091879;28;19915;-81
2024/01/18 12:02:06;;;;;;;;;;;;;;;10.06;66.67;97736.50;5090584;28;19973;-80
2024/01/18 12:04:31;;;;;;;;;;;;;;;10.08;65.33;97742.31;5091604;28;19915;-79
2024/01/18 12:06:56;;;;;;;;;;;;;;;10.08;66.00;97742.31;5090369;28;19912;-78
2024/01/18 12:09:22;;;;;;;;;;;;;;;10.08;66.05;97742.31;5091736;28;20391;-79
2024/01/18 12:11:47;;;;;;;;;;;;;;;9.90;66.16;97743.03;5084497;28;20403;-81
2024/01/18 12:14:12;;;;;;;;;;;;;;;9.96;66.69;97740.44;5082885;28;19908;-79
2024/01/18 12:16:38;;;;;;;;;;;;;;;9.85;66.73;97729.81;5089849;28;19920;-79
2024/01/18 12:19:05;;;;;;;;;;;;;;;9.86;67.66;97736.88;5091654;28;20386;-79
2024/01/18 12:21:31;;;;;;;;;;;;;;;9.86;66.99;97730.59;5090399;28;20418;-79
2024/01/18 12:23:56;;;;;;;;;;;;;;;9.83;68.11;97726.75;5090086;28;19946;-80
2024/01/18 12:26:22;;;;;;;;;;;;;;;9.74;67.60;97715.69;5091527;28;19915;-80
2024/01/18 12:28:47;;;;;;;;;;;;;;;9.70;68.84;97713.09;5090139;28;20303;-80
2024/01/18 12:31:13;;;;;;;;;;;;;;;9.56;69.54;97708.13;5090128;28;19950;-81
2024/01/18 12:33:38;;;;;;;;;;;;;;;9.64;68.38;97725.94;5091518;28;20295;-79
2024/01/18 12:36:03;;;;;;;;;;;;;;;9.88;67.52;97720.66;5089841;28;20368;-79
2024/01/18 12:38:29;;;;;;;;;;;;;;;10.08;66.73;97721.00;5091413;28;20012;-81
2024/01/18 12:40:54;;;;;;;;;;;;;;;10.31;66.07;97718.94;5090008;28;19952;-79
2024/01/18 12:43:20;;;;;;;;;;;;;;;10.49;64.72;97727.19;5089839;28;19981;-79